• Join FlightAware (Why Join?)
  • Login
  • US Flag 
01:06AM EDT


 

Airport Tracker/Info


-or-


 

Live Flight TrackerFlight Track Log ✈ N319EE ✈ 07-Oct-2013 ✈ KBGM - KPWM

Flight Track Log - Related Links

Times and Time Zones

All times are in EDT time to prevent confusion due to time zone crossing. See the N319EE flight status page for this flight to view local times or setup timezone preferences in your user account.

Time Position Orientation Groundspeed Altitude Reporting Facility
EDT Latitude Longitude Course Direction KTS MPH feet Rate Location/Type
08:58AM 42.2161 -75.9081 71° East 204 235 4,000  Level Boston Center
08:59AM 42.2367 -75.8475 65° Northeast 199 229 5,900 1,920 Climbing Boston Center
09:00AM 42.2575 -75.7756 69° East 193 222 8,000 2,040 Climbing Boston Center
09:01AM 42.2825 -75.7067 64° Northeast 193 222 10,000 1,800 Climbing Boston Center
09:02AM 42.3014 -75.6319 71° East 193 222 11,600 1,500 Climbing Boston Center
09:03AM 42.3744 -75.3892 71° East  Level Estimated
09:03AM 42.3222 -75.5517 71° East 209 241 13,100  Level Boston Center
09:04AM 42.3431 -75.4739 70° East 209 241 14,700 1,500 Climbing Boston Center
09:05AM 42.3661 -75.3908 69° East 214 246 16,200 1,380 Climbing Boston Center
09:06AM 42.3892 -75.3075 69° East 220 253 17,600 1,320 Climbing Boston Center
09:07AM 42.4142 -75.2272 67° East 226 260 18,800 1,140 Climbing Boston Center
09:08AM 42.4394 -75.1325 70° East 237 273 19,900 1,080 Climbing Boston Center
09:09AM 42.4622 -75.0492 70° East 237 273 21,000 540 Climbing Boston Center
09:10AM 42.4894 -74.9517 69° East 254 292 21,000  Level Boston Center
09:11AM 42.5186 -74.8458 69° East 274 315 21,000  Level Boston Center
09:12AM 42.5503 -74.7369 68° East 297 342 21,000  Level Boston Center
09:13AM 42.5772 -74.6308 71° East 297 342 21,000  Level Boston Center
09:14AM 42.6064 -74.5247 69° East 297 342 21,000  Level Boston Center
09:15AM 42.6356 -74.4128 70° East 302 348 21,000  Level Boston Center
09:16AM 42.6664 -74.3064 68° East 302 348 21,000  Level Boston Center
09:17AM 42.6931 -74.2000 71° East 302 348 21,000  Level Boston Center
09:18AM 42.7239 -74.0878 69° East 307 353 21,000  Level Boston Center
09:19AM 42.7525 -73.9811 70° East 307 353 21,000  Level Boston Center
09:20AM 42.7811 -73.8686 71° East 307 353 21,000  Level Boston Center
09:21AM 42.8075 -73.7617 71° East 307 353 21,000  Level Boston Center
09:22AM 42.8397 -73.6661 65° Northeast 302 348 21,000  Level Boston Center
09:23AM 42.8703 -73.5506 70° East 302 348 21,000  Level Boston Center
09:24AM 42.8942 -73.4378 74° East 302 348 21,000  Level Boston Center
09:25AM 42.9242 -73.3389 67° East 302 348 21,000  Level Boston Center
09:26AM 42.9564 -73.2175 70° East 308 354 21,000  Level Boston Center
09:27AM 42.9819 -73.1069 72° East 303 349 21,000  Level Boston Center
09:28AM 43.0117 -73.0022 69° East 303 349 21,000  Level Boston Center
09:29AM 43.0331 -72.8975 74° East 303 349 21,000  Level Boston Center
09:30AM 43.0625 -72.7867 70° East 303 349 21,000  Level Boston Center
09:31AM 43.0900 -72.6761 71° East 303 349 21,000  Level Boston Center
09:32AM 43.1236 -72.5653 67° East 303 349 21,000  Level Boston Center
09:33AM 43.1506 -72.4486 72° East 303 349 21,000  Level Boston Center
09:34AM 43.1756 -72.3375 73° East 298 343 21,000  Level Boston Center
09:35AM 43.2025 -72.2294 71° East 298 343 21,000  Level Boston Center
09:36AM 43.2294 -72.1208 71° East 298 343 21,000  Level Boston Center
09:37AM 43.2561 -72.0097 72° East 298 343 21,000  Level Boston Center
09:38AM 43.2828 -71.8983 72° East 298 343 21,000 -240 Level Boston Center
09:39AM 43.3114 -71.7867 71° East 304 350 20,600 -1,140 Descending Boston Center
09:40AM 43.3378 -71.6781 71° East 309 356 18,800 -1,980 Descending Boston Center
09:41AM 43.3722 -71.5319 72° East 346 398 16,700 -1,980 Descending Boston Center
09:42AM 43.3983 -71.4200 72° East 346 398 15,000 -1,740 Descending Boston Center
09:43AM 43.4283 -71.2964 71° East 341 392 13,200 -1,860 Descending Boston Center
09:44AM 43.4583 -71.1617 73° East 341 392 11,300 -1,140 Descending Boston Center
09:45AM 43.4842 -71.0636 70° East 316 364 11,000 -420 Descending Boston Center
09:46AM 43.5203 -70.9597 64° Northeast 282 325 10,500 -1,080 Descending Boston Center
09:47AM 43.5569 -70.8817 57° Northeast 266 306 8,900 -1,800 Descending Boston Center
09:48AM 43.5953 -70.8003 57° Northeast 260 299 6,900 -1,980 Descending Boston Center
09:49AM 43.6356 -70.7103 58° Northeast 260 299 4,900 -1,860 Descending Boston Center
09:50AM 43.6658 -70.6378 60° Northeast 255 293 3,300 -1,320 Descending Boston Center
09:51AM 43.6606 -70.5631 96° East 191 220 2,400 -600 Descending Boston Center
09:52AM 43.6594 -70.5058 92° East 162 186 2,100 -300 Descending Boston Center
09:53AM 43.6542 -70.4458 97° East 146 168 1,800 -540 Descending Boston Center
09:54AM 43.6514 -70.3942 94° East 141 162 1,100 -780 Descending Boston Center
09:55AM 43.6481 -70.3369 95° East 141 162 300 -480 Descending Boston Center
09:56AM 43.6472 -70.2908 91° East 141 162 200 5,280 Descending Boston Center
09:57AM 43.6464 -70.2422 91° East 141 162 11,000 10,440 Climbing Boston Center